createdAt,value
2023-10-20T00:11:38.965Z,20.2
2023-10-20T00:41:38.984Z,20.1
2023-10-20T01:11:38.967Z,20.1
2023-10-20T01:41:38.940Z,20.1
2023-10-20T02:11:38.508Z,20.1
2023-10-20T02:41:38.980Z,20.1
2023-10-20T03:11:38.949Z,20.1
2023-10-20T03:41:38.939Z,20.1
2023-10-20T04:11:38.930Z,20.1
2023-10-20T04:41:38.946Z,20.3
2023-10-20T05:11:38.958Z,20.5
2023-10-20T05:41:38.912Z,20.6
2023-10-20T06:11:39.295Z,20.6
2023-10-20T06:41:38.940Z,20.6
2023-10-20T07:11:38.942Z,20.6
2023-10-20T07:41:39.037Z,20.7
2023-10-20T08:11:39.277Z,20.7
2023-10-20T08:41:39.062Z,20.7
2023-10-20T09:11:39.227Z,20.8
2023-10-20T09:41:39.200Z,20.8
2023-10-20T10:11:39.238Z,20.8
2023-10-20T10:41:38.941Z,20.8
2023-10-20T11:11:39.191Z,20.8
2023-10-20T11:41:38.924Z,20.8
2023-10-20T12:11:38.925Z,20.8
2023-10-20T12:41:38.969Z,21.0
2023-10-20T13:11:38.927Z,21.0
2023-10-20T13:41:38.907Z,21.0
2023-10-20T14:11:38.917Z,20.9
2023-10-20T14:41:38.925Z,20.9
2023-10-20T15:11:38.931Z,20.9
2023-10-20T15:41:38.954Z,21.1
2023-10-20T16:11:38.933Z,21.0
2023-10-20T16:41:38.926Z,21.0
2023-10-20T17:11:38.452Z,21.0
2023-10-20T17:41:38.947Z,21.0
2023-10-20T18:11:38.936Z,21.0
2023-10-20T18:41:38.926Z,21.0
2023-10-20T19:11:38.919Z,20.9
2023-10-20T19:41:38.935Z,20.9
2023-10-20T20:11:38.922Z,20.8
2023-10-20T20:41:38.947Z,20.7
2023-10-20T21:11:38.934Z,20.7
2023-10-20T21:41:38.896Z,20.6
2023-10-20T22:11:38.900Z,20.6
2023-10-20T22:41:38.895Z,20.6
2023-10-20T23:11:38.911Z,20.5
2023-10-20T23:41:38.890Z,20.5
